»·PEaware :: N232KW KSNA-KSMO

N232KW :: KSNA-KSMO

FLIGHT INFORMATION

Flight Status: Arrived
Operator: Privately registered:
United States
More flights under this callsign
Pilot: Sally S. (18014)
Aircraft: MOONEY M-20K/M ENCORE BRAVO
(M20T)
More flights by this aircraft type
Origin: KSNA John Wayne-Orange Co
United States
Destination: KSMO Santa Monica Mun
United States
More flights between these airports :: More routes between these airports
Route: SLI V8 POXKU V363 BAYJY V186 DARTS
File this flight plan on PilotEdge
Remarks: I4 Test
Altitude:
(Current/Filed)
6,000ft
Speed:
(Current/Filed)
180kts
Departed: 17-Apr-18 12:18 PM
Arrived: 17-Apr-18 12:53 PM
Distance/Time
Traveled:
35nm/0:35
Distance/Time
To Go:
Arrived

Flight Plot

Page will automatically refresh every two minutes.


Map Options




Map Legend


Flown Route
Filed Route
Departure Airport
Arrival Airport
Navaid (VOR, NDB)
Fix

Horizontal Profiles

Position Reports

Time Latitude Longitude Heading Altitude Ground
Speed
17-Apr-18 11:54 33.671517 -117.867200 26 58ft 0kts
17-Apr-18 11:55 33.671517 -117.867200 26 58ft 0kts
17-Apr-18 11:56 33.671517 -117.867200 26 58ft 0kts
17-Apr-18 11:57 33.671517 -117.867200 26 58ft 0kts
17-Apr-18 11:58 33.671517 -117.867200 26 58ft 0kts
17-Apr-18 11:59 33.671517 -117.867200 26 58ft 0kts
17-Apr-18 12:00 33.671517 -117.867200 26 58ft 0kts
17-Apr-18 12:01 33.671517 -117.867200 26 58ft 0kts
17-Apr-18 12:02 33.671517 -117.867200 26 58ft 0kts
17-Apr-18 12:03 33.671517 -117.867200 26 58ft 0kts
17-Apr-18 12:04 33.671517 -117.867200 26 58ft 0kts
17-Apr-18 12:05 33.671517 -117.867200 26 58ft 0kts
17-Apr-18 12:06 33.671517 -117.867200 26 58ft 0kts
17-Apr-18 12:07 33.671517 -117.867200 26 58ft 0kts
17-Apr-18 12:08 33.671517 -117.867200 26 58ft 0kts
17-Apr-18 12:09 33.671517 -117.867200 26 58ft 0kts
17-Apr-18 12:10 33.671517 -117.867200 26 58ft 0kts
17-Apr-18 12:11 33.671517 -117.867200 26 58ft 0kts
17-Apr-18 12:12 33.672335 -117.867433 321 58ft 16kts
17-Apr-18 12:13 33.675516 -117.866205 28 58ft 21kts
17-Apr-18 12:14 33.679956 -117.863632 294 58ft 0kts
17-Apr-18 12:15 33.679956 -117.863632 294 58ft 0kts
17-Apr-18 12:16 33.679957 -117.863633 297 58ft 0kts
17-Apr-18 12:17 33.669463 -117.871327 212 521ft 91kts
17-Apr-18 12:18 33.652419 -117.894767 229 1983ft 117kts
17-Apr-18 12:19 33.632802 -117.938877 287 2320ft 173kts
17-Apr-18 12:20 33.669046 -117.941431 20 3805ft 148kts
17-Apr-18 12:21 33.707016 -117.923289 20 4985ft 151kts
17-Apr-18 12:22 33.745254 -117.903909 20 5987ft 164kts
17-Apr-18 12:23 33.790548 -117.880307 20 6000ft 189kts
17-Apr-18 12:24 33.833809 -117.847291 70 5991ft 196kts
17-Apr-18 12:25 33.854219 -117.789411 29 5994ft 183kts
17-Apr-18 12:26 33.902998 -117.783691 358 5999ft 177kts
17-Apr-18 12:27 33.952025 -117.784567 358 6000ft 176kts
17-Apr-18 12:28 34.000439 -117.787742 331 6034ft 175kts
17-Apr-18 12:29 34.023546 -117.838875 292 6046ft 178kts
17-Apr-18 12:30 34.040876 -117.894447 292 6046ft 179kts
17-Apr-18 12:31 34.057901 -117.949656 292 6044ft 180kts
17-Apr-18 12:32 34.075167 -118.005755 292 6040ft 178kts
17-Apr-18 12:33 34.092257 -118.061339 292 5700ft 188kts
17-Apr-18 12:34 34.110192 -118.119855 291 4757ft 196kts
17-Apr-18 12:35 34.128123 -118.178704 291 4035ft 174kts
17-Apr-18 12:36 34.142493 -118.225911 291 4030ft 147kts
17-Apr-18 12:37 34.150983 -118.271003 238 4028ft 142kts
17-Apr-18 12:38 34.120007 -118.305544 221 3437ft 167kts
17-Apr-18 12:39 34.087970 -118.339420 221 3022ft 115kts
17-Apr-18 12:40 34.065494 -118.362401 221 3031ft 103kts
17-Apr-18 12:41 34.043554 -118.384481 221 3035ft 102kts
17-Apr-18 12:42 34.021620 -118.406898 237 3041ft 107kts
17-Apr-18 12:43 34.033365 -118.437182 311 3039ft 111kts
17-Apr-18 12:44 34.054324 -118.465692 311 3039ft 115kts
17-Apr-18 12:45 34.075804 -118.494354 311 3040ft 116kts
17-Apr-18 12:46 34.102369 -118.497576 41 3039ft 123kts
17-Apr-18 12:47 34.120270 -118.465409 108 3037ft 125kts
17-Apr-18 12:48 34.098713 -118.433405 140 2997ft 130kts
17-Apr-18 12:49 34.063890 -118.415646 162 1904ft 132kts
17-Apr-18 12:50 34.035354 -118.428340 223 795ft 99kts
17-Apr-18 12:51 34.017637 -118.449167 223 181ft 55kts
17-Apr-18 12:52 34.013536 -118.453912 221 179ft 17kts
17-Apr-18 12:53 34.012764 -118.453691 102 179ft 7kts
17-Apr-18 12:54 34.012984 -118.452643 322 179ft 0kts
17-Apr-18 12:55 34.012984 -118.452643 323 179ft 0kts
17-Apr-18 12:56 34.012984 -118.452643 323 179ft 0kts
17-Apr-18 12:57 34.012984 -118.452643 323 179ft 0kts
17-Apr-18 12:58 34.012984 -118.452643 323 179ft 0kts
17-Apr-18 12:59 34.012984 -118.452643 323 179ft 0kts
17-Apr-18 13:00 34.012984 -118.452643 323 179ft 0kts
17-Apr-18 13:01 34.012984 -118.452643 323 179ft 0kts
17-Apr-18 13:02 34.012984 -118.452643 323 179ft 0kts
17-Apr-18 13:03 34.012984 -118.452643 323 179ft 0kts

Navigation Log

Ident Type
1. KSNA Airport
2. SLI Navaid
3. AHEIM Fix
4. OLLIE Fix
5. POXKU Fix
6. POXKU Fix
7. PRADO Fix
8. BAYJY Fix
9. BAYJY Fix
10. ADAMM Fix
11. PIRRO Fix
12. ITSME Fix
13. ELMOO Fix
14. PURMS Fix
15. DARTS Fix
16. KSMO Airport